sensor_id;sensor_type;location;lat;lon;timestamp;P1;durP1;ratioP1;P2;durP2;ratioP2
70967;SDS011;58629;48.808;8.820;2023-12-07T00:00:09;10.67;;;5.57;;
70967;SDS011;58629;48.808;8.820;2023-12-07T00:02:34;10.15;;;5.30;;
70967;SDS011;58629;48.808;8.820;2023-12-07T00:05:00;9.07;;;4.97;;
70967;SDS011;58629;48.808;8.820;2023-12-07T00:07:25;10.00;;;4.73;;
70967;SDS011;58629;48.808;8.820;2023-12-07T00:09:50;11.90;;;6.17;;
70967;SDS011;58629;48.808;8.820;2023-12-07T00:12:16;9.55;;;4.53;;
70967;SDS011;58629;48.808;8.820;2023-12-07T00:14:42;10.20;;;5.33;;
70967;SDS011;58629;48.808;8.820;2023-12-07T00:17:07;9.83;;;4.57;;
70967;SDS011;58629;48.808;8.820;2023-12-07T00:19:33;8.77;;;4.50;;
70967;SDS011;58629;48.808;8.820;2023-12-07T00:21:58;7.85;;;4.05;;
70967;SDS011;58629;48.808;8.820;2023-12-07T00:24:23;7.85;;;3.97;;
70967;SDS011;58629;48.808;8.820;2023-12-07T00:26:49;8.57;;;4.60;;
70967;SDS011;58629;48.808;8.820;2023-12-07T00:29:14;8.07;;;4.17;;
70967;SDS011;58629;48.808;8.820;2023-12-07T00:31:40;7.80;;;4.00;;
70967;SDS011;58629;48.808;8.820;2023-12-07T00:34:05;6.93;;;3.60;;
70967;SDS011;58629;48.808;8.820;2023-12-07T00:36:31;6.90;;;3.70;;
70967;SDS011;58629;48.808;8.820;2023-12-07T00:38:56;6.17;;;3.20;;
70967;SDS011;58629;48.808;8.820;2023-12-07T00:41:21;6.17;;;3.37;;
70967;SDS011;58629;48.808;8.820;2023-12-07T00:43:47;6.43;;;3.07;;
70967;SDS011;58629;48.808;8.820;2023-12-07T00:46:12;6.30;;;3.40;;
70967;SDS011;58629;48.808;8.820;2023-12-07T00:48:38;6.60;;;3.20;;
70967;SDS011;58629;48.808;8.820;2023-12-07T00:51:03;6.00;;;3.40;;
70967;SDS011;58629;48.808;8.820;2023-12-07T00:53:31;5.60;;;2.67;;
70967;SDS011;58629;48.808;8.820;2023-12-07T00:55:56;5.73;;;3.00;;
70967;SDS011;58629;48.808;8.820;2023-12-07T00:58:22;5.23;;;2.63;;
70967;SDS011;58629;48.808;8.820;2023-12-07T01:00:48;5.00;;;2.70;;
70967;SDS011;58629;48.808;8.820;2023-12-07T01:03:13;6.50;;;2.70;;
70967;SDS011;58629;48.808;8.820;2023-12-07T01:05:39;5.45;;;2.70;;
70967;SDS011;58629;48.808;8.820;2023-12-07T01:08:04;5.00;;;2.60;;
70967;SDS011;58629;48.808;8.820;2023-12-07T01:10:30;5.33;;;2.83;;
70967;SDS011;58629;48.808;8.820;2023-12-07T01:12:55;5.90;;;3.07;;
70967;SDS011;58629;48.808;8.820;2023-12-07T01:15:20;5.63;;;3.00;;
70967;SDS011;58629;48.808;8.820;2023-12-07T01:17:46;6.35;;;3.00;;
70967;SDS011;58629;48.808;8.820;2023-12-07T01:20:11;5.18;;;2.47;;
70967;SDS011;58629;48.808;8.820;2023-12-07T01:22:37;5.67;;;2.77;;
70967;SDS011;58629;48.808;8.820;2023-12-07T01:25:06;6.35;;;3.17;;
70967;SDS011;58629;48.808;8.820;2023-12-07T01:27:32;6.63;;;3.58;;
70967;SDS011;58629;48.808;8.820;2023-12-07T01:29:58;6.47;;;3.50;;
70967;SDS011;58629;48.808;8.820;2023-12-07T01:32:23;6.30;;;3.50;;
70967;SDS011;58629;48.808;8.820;2023-12-07T01:34:48;5.37;;;2.90;;
70967;SDS011;58629;48.808;8.820;2023-12-07T01:37:14;5.32;;;2.58;;
70967;SDS011;58629;48.808;8.820;2023-12-07T01:39:41;4.97;;;2.80;;
70967;SDS011;58629;48.808;8.820;2023-12-07T01:42:07;5.05;;;2.72;;
70967;SDS011;58629;48.808;8.820;2023-12-07T01:44:33;4.33;;;2.57;;
70967;SDS011;58629;48.808;8.820;2023-12-07T01:46:59;4.63;;;2.50;;
70967;SDS011;58629;48.808;8.820;2023-12-07T01:49:24;5.00;;;2.40;;
70967;SDS011;58629;48.808;8.820;2023-12-07T01:51:50;5.13;;;2.53;;
70967;SDS011;58629;48.808;8.820;2023-12-07T01:54:15;3.83;;;2.10;;
70967;SDS011;58629;48.808;8.820;2023-12-07T01:56:41;3.83;;;2.17;;
70967;SDS011;58629;48.808;8.820;2023-12-07T01:59:07;4.68;;;2.40;;
70967;SDS011;58629;48.808;8.820;2023-12-07T02:01:33;4.03;;;2.20;;
70967;SDS011;58629;48.808;8.820;2023-12-07T02:03:58;4.50;;;2.43;;
70967;SDS011;58629;48.808;8.820;2023-12-07T02:06:24;5.67;;;2.53;;
70967;SDS011;58629;48.808;8.820;2023-12-07T02:08:51;4.47;;;2.40;;
70967;SDS011;58629;48.808;8.820;2023-12-07T02:11:16;4.40;;;2.40;;
70967;SDS011;58629;48.808;8.820;2023-12-07T02:13:43;4.85;;;2.60;;
70967;SDS011;58629;48.808;8.820;2023-12-07T02:16:17;4.30;;;2.30;;
70967;SDS011;58629;48.808;8.820;2023-12-07T02:18:52;4.03;;;2.28;;
70967;SDS011;58629;48.808;8.820;2023-12-07T02:21:30;3.67;;;2.10;;
70967;SDS011;58629;48.808;8.820;2023-12-07T02:24:03;3.83;;;1.98;;
70967;SDS011;58629;48.808;8.820;2023-12-07T02:26:49;3.60;;;1.90;;
70967;SDS011;58629;48.808;8.820;2023-12-07T02:29:15;3.63;;;1.77;;
70967;SDS011;58629;48.808;8.820;2023-12-07T02:31:40;3.40;;;2.00;;
70967;SDS011;58629;48.808;8.820;2023-12-07T02:34:06;3.47;;;2.00;;
70967;SDS011;58629;48.808;8.820;2023-12-07T02:36:32;4.15;;;2.20;;
70967;SDS011;58629;48.808;8.820;2023-12-07T02:39:01;4.00;;;2.10;;
70967;SDS011;58629;48.808;8.820;2023-12-07T02:41:28;7.20;;;3.53;;
70967;SDS011;58629;48.808;8.820;2023-12-07T02:43:56;6.50;;;3.63;;
70967;SDS011;58629;48.808;8.820;2023-12-07T02:46:22;6.35;;;3.40;;
70967;SDS011;58629;48.808;8.820;2023-12-07T02:48:49;8.55;;;3.85;;
70967;SDS011;58629;48.808;8.820;2023-12-07T02:51:14;6.73;;;3.30;;
70967;SDS011;58629;48.808;8.820;2023-12-07T02:53:39;7.40;;;3.70;;
70967;SDS011;58629;48.808;8.820;2023-12-07T02:56:05;6.40;;;3.53;;
70967;SDS011;58629;48.808;8.820;2023-12-07T02:58:30;6.13;;;3.30;;
70967;SDS011;58629;48.808;8.820;2023-12-07T03:00:56;7.63;;;3.75;;
70967;SDS011;58629;48.808;8.820;2023-12-07T03:03:21;8.05;;;4.22;;
70967;SDS011;58629;48.808;8.820;2023-12-07T03:05:47;7.27;;;3.83;;
70967;SDS011;58629;48.808;8.820;2023-12-07T03:08:12;7.40;;;3.80;;
70967;SDS011;58629;48.808;8.820;2023-12-07T03:10:37;7.77;;;3.80;;
70967;SDS011;58629;48.808;8.820;2023-12-07T03:13:03;6.43;;;3.30;;
70967;SDS011;58629;48.808;8.820;2023-12-07T03:15:28;6.20;;;3.20;;
70967;SDS011;58629;48.808;8.820;2023-12-07T03:17:53;5.63;;;2.90;;
70967;SDS011;58629;48.808;8.820;2023-12-07T03:20:19;6.00;;;3.17;;
70967;SDS011;58629;48.808;8.820;2023-12-07T03:22:44;5.50;;;3.00;;
70967;SDS011;58629;48.808;8.820;2023-12-07T03:25:10;6.70;;;3.13;;
70967;SDS011;58629;48.808;8.820;2023-12-07T03:27:35;5.87;;;2.90;;
70967;SDS011;58629;48.808;8.820;2023-12-07T03:30:01;5.40;;;2.87;;
70967;SDS011;58629;48.808;8.820;2023-12-07T03:32:26;4.90;;;2.40;;
70967;SDS011;58629;48.808;8.820;2023-12-07T03:34:51;5.10;;;2.90;;
70967;SDS011;58629;48.808;8.820;2023-12-07T03:37:16;3.90;;;2.50;;
70967;SDS011;58629;48.808;8.820;2023-12-07T03:39:42;4.23;;;2.47;;
70967;SDS011;58629;48.808;8.820;2023-12-07T03:42:07;4.20;;;2.10;;
70967;SDS011;58629;48.808;8.820;2023-12-07T03:44:32;4.43;;;2.20;;
70967;SDS011;58629;48.808;8.820;2023-12-07T03:46:58;3.70;;;1.97;;
70967;SDS011;58629;48.808;8.820;2023-12-07T03:49:23;4.20;;;2.17;;
70967;SDS011;58629;48.808;8.820;2023-12-07T03:51:49;3.80;;;2.00;;
70967;SDS011;58629;48.808;8.820;2023-12-07T03:54:14;4.47;;;2.23;;
70967;SDS011;58629;48.808;8.820;2023-12-07T03:56:39;4.25;;;2.17;;
70967;SDS011;58629;48.808;8.820;2023-12-07T03:59:07;4.23;;;2.20;;
70967;SDS011;58629;48.808;8.820;2023-12-07T04:01:33;3.75;;;2.10;;
70967;SDS011;58629;48.808;8.820;2023-12-07T04:03:58;4.30;;;2.13;;
70967;SDS011;58629;48.808;8.820;2023-12-07T04:06:25;4.97;;;2.40;;
70967;SDS011;58629;48.808;8.820;2023-12-07T04:08:51;4.50;;;2.30;;
70967;SDS011;58629;48.808;8.820;2023-12-07T04:11:17;4.60;;;2.42;;
70967;SDS011;58629;48.808;8.820;2023-12-07T04:13:43;5.17;;;2.20;;
70967;SDS011;58629;48.808;8.820;2023-12-07T04:16:09;4.45;;;2.17;;
70967;SDS011;58629;48.808;8.820;2023-12-07T04:18:35;5.50;;;2.60;;
70967;SDS011;58629;48.808;8.820;2023-12-07T04:21:01;5.53;;;3.07;;
70967;SDS011;58629;48.808;8.820;2023-12-07T04:23:27;5.40;;;2.90;;
70967;SDS011;58629;48.808;8.820;2023-12-07T04:25:53;7.73;;;3.57;;
70967;SDS011;58629;48.808;8.820;2023-12-07T04:28:18;7.10;;;3.58;;
70967;SDS011;58629;48.808;8.820;2023-12-07T04:30:43;6.85;;;3.42;;
70967;SDS011;58629;48.808;8.820;2023-12-07T04:33:09;6.97;;;3.20;;
70967;SDS011;58629;48.808;8.820;2023-12-07T04:35:34;7.50;;;3.50;;
70967;SDS011;58629;48.808;8.820;2023-12-07T04:38:00;6.70;;;3.27;;
70967;SDS011;58629;48.808;8.820;2023-12-07T04:40:26;6.63;;;3.00;;
70967;SDS011;58629;48.808;8.820;2023-12-07T04:42:51;5.50;;;3.17;;
70967;SDS011;58629;48.808;8.820;2023-12-07T04:45:17;6.05;;;3.13;;
70967;SDS011;58629;48.808;8.820;2023-12-07T04:47:42;5.20;;;3.10;;
70967;SDS011;58629;48.808;8.820;2023-12-07T04:50:08;5.37;;;2.90;;
70967;SDS011;58629;48.808;8.820;2023-12-07T04:52:34;5.50;;;2.85;;
70967;SDS011;58629;48.808;8.820;2023-12-07T04:55:00;4.93;;;2.63;;
70967;SDS011;58629;48.808;8.820;2023-12-07T04:57:26;5.63;;;2.93;;
70967;SDS011;58629;48.808;8.820;2023-12-07T04:59:51;6.27;;;2.80;;
70967;SDS011;58629;48.808;8.820;2023-12-07T05:02:16;5.50;;;2.80;;
70967;SDS011;58629;48.808;8.820;2023-12-07T05:04:45;5.60;;;2.80;;
70967;SDS011;58629;48.808;8.820;2023-12-07T05:07:11;4.38;;;2.35;;
70967;SDS011;58629;48.808;8.820;2023-12-07T05:09:36;4.95;;;2.45;;
70967;SDS011;58629;48.808;8.820;2023-12-07T05:12:03;4.30;;;2.50;;
70967;SDS011;58629;48.808;8.820;2023-12-07T05:14:30;4.47;;;2.28;;
70967;SDS011;58629;48.808;8.820;2023-12-07T05:16:59;4.28;;;1.98;;
70967;SDS011;58629;48.808;8.820;2023-12-07T05:19:25;3.90;;;2.10;;
70967;SDS011;58629;48.808;8.820;2023-12-07T05:21:51;3.43;;;1.90;;
70967;SDS011;58629;48.808;8.820;2023-12-07T05:24:17;3.78;;;1.80;;
70967;SDS011;58629;48.808;8.820;2023-12-07T05:26:42;3.87;;;1.80;;
70967;SDS011;58629;48.808;8.820;2023-12-07T05:29:11;3.78;;;1.98;;
70967;SDS011;58629;48.808;8.820;2023-12-07T05:31:37;3.65;;;1.77;;
70967;SDS011;58629;48.808;8.820;2023-12-07T05:34:03;4.33;;;2.13;;
70967;SDS011;58629;48.808;8.820;2023-12-07T05:36:29;5.13;;;2.60;;
70967;SDS011;58629;48.808;8.820;2023-12-07T05:38:54;6.07;;;2.63;;
70967;SDS011;58629;48.808;8.820;2023-12-07T05:41:20;5.43;;;3.00;;
70967;SDS011;58629;48.808;8.820;2023-12-07T05:43:45;5.27;;;2.90;;
70967;SDS011;58629;48.808;8.820;2023-12-07T05:46:10;5.50;;;2.93;;
70967;SDS011;58629;48.808;8.820;2023-12-07T05:48:36;5.95;;;3.08;;
70967;SDS011;58629;48.808;8.820;2023-12-07T05:51:02;5.27;;;2.93;;
70967;SDS011;58629;48.808;8.820;2023-12-07T05:53:27;5.57;;;3.03;;
70967;SDS011;58629;48.808;8.820;2023-12-07T05:55:54;7.13;;;3.47;;
70967;SDS011;58629;48.808;8.820;2023-12-07T05:58:19;10.48;;;4.80;;
70967;SDS011;58629;48.808;8.820;2023-12-07T06:00:45;10.97;;;5.00;;
70967;SDS011;58629;48.808;8.820;2023-12-07T06:03:12;12.85;;;6.25;;
70967;SDS011;58629;48.808;8.820;2023-12-07T06:05:40;13.13;;;5.97;;
70967;SDS011;58629;48.808;8.820;2023-12-07T06:08:06;10.07;;;5.20;;
70967;SDS011;58629;48.808;8.820;2023-12-07T06:10:32;13.88;;;5.18;;
70967;SDS011;58629;48.808;8.820;2023-12-07T06:12:57;8.10;;;4.37;;
70967;SDS011;58629;48.808;8.820;2023-12-07T06:15:25;10.13;;;5.35;;
70967;SDS011;58629;48.808;8.820;2023-12-07T06:17:51;8.90;;;4.60;;
70967;SDS011;58629;48.808;8.820;2023-12-07T06:20:16;9.17;;;4.63;;
70967;SDS011;58629;48.808;8.820;2023-12-07T06:22:42;12.33;;;5.67;;
70967;SDS011;58629;48.808;8.820;2023-12-07T06:25:07;9.98;;;5.10;;
70967;SDS011;58629;48.808;8.820;2023-12-07T06:27:33;13.07;;;6.50;;
70967;SDS011;58629;48.808;8.820;2023-12-07T06:30:02;12.18;;;5.50;;
70967;SDS011;58629;48.808;8.820;2023-12-07T06:32:30;8.23;;;4.63;;
70967;SDS011;58629;48.808;8.820;2023-12-07T06:34:56;7.27;;;4.40;;
70967;SDS011;58629;48.808;8.820;2023-12-07T06:37:21;7.70;;;4.43;;
70967;SDS011;58629;48.808;8.820;2023-12-07T06:39:47;7.40;;;3.90;;
70967;SDS011;58629;48.808;8.820;2023-12-07T06:42:14;7.10;;;3.90;;
70967;SDS011;58629;48.808;8.820;2023-12-07T06:44:39;7.70;;;4.13;;
70967;SDS011;58629;48.808;8.820;2023-12-07T06:47:05;5.93;;;3.50;;
70967;SDS011;58629;48.808;8.820;2023-12-07T06:49:30;6.15;;;3.40;;
70967;SDS011;58629;48.808;8.820;2023-12-07T06:51:56;6.43;;;3.37;;
70967;SDS011;58629;48.808;8.820;2023-12-07T06:54:21;5.60;;;2.70;;
70967;SDS011;58629;48.808;8.820;2023-12-07T06:56:47;5.80;;;2.90;;
70967;SDS011;58629;48.808;8.820;2023-12-07T06:59:12;6.93;;;3.60;;
70967;SDS011;58629;48.808;8.820;2023-12-07T07:01:38;6.07;;;3.17;;
70967;SDS011;58629;48.808;8.820;2023-12-07T07:04:03;5.33;;;2.90;;
70967;SDS011;58629;48.808;8.820;2023-12-07T07:06:29;6.10;;;3.07;;
70967;SDS011;58629;48.808;8.820;2023-12-07T07:08:54;5.13;;;2.57;;
70967;SDS011;58629;48.808;8.820;2023-12-07T07:11:19;5.65;;;2.72;;
70967;SDS011;58629;48.808;8.820;2023-12-07T07:13:45;6.00;;;2.50;;
70967;SDS011;58629;48.808;8.820;2023-12-07T07:16:10;5.47;;;2.70;;
70967;SDS011;58629;48.808;8.820;2023-12-07T07:18:39;6.33;;;3.13;;
70967;SDS011;58629;48.808;8.820;2023-12-07T07:21:04;5.97;;;2.90;;
70967;SDS011;58629;48.808;8.820;2023-12-07T07:23:30;7.68;;;3.05;;
70967;SDS011;58629;48.808;8.820;2023-12-07T07:25:56;5.63;;;2.90;;
70967;SDS011;58629;48.808;8.820;2023-12-07T07:28:21;6.37;;;3.00;;
70967;SDS011;58629;48.808;8.820;2023-12-07T07:30:47;7.43;;;3.73;;
70967;SDS011;58629;48.808;8.820;2023-12-07T07:33:12;7.10;;;3.10;;
70967;SDS011;58629;48.808;8.820;2023-12-07T07:35:38;6.75;;;2.83;;
70967;SDS011;58629;48.808;8.820;2023-12-07T07:38:03;6.70;;;3.03;;
70967;SDS011;58629;48.808;8.820;2023-12-07T07:40:28;7.77;;;2.90;;
70967;SDS011;58629;48.808;8.820;2023-12-07T07:42:54;8.47;;;3.40;;
70967;SDS011;58629;48.808;8.820;2023-12-07T07:45:19;7.07;;;3.17;;
70967;SDS011;58629;48.808;8.820;2023-12-07T07:47:45;8.02;;;3.63;;
70967;SDS011;58629;48.808;8.820;2023-12-07T07:50:10;9.83;;;4.03;;
70967;SDS011;58629;48.808;8.820;2023-12-07T07:52:36;10.50;;;5.07;;
70967;SDS011;58629;48.808;8.820;2023-12-07T07:55:02;8.90;;;4.00;;
70967;SDS011;58629;48.808;8.820;2023-12-07T07:57:29;9.55;;;3.85;;
70967;SDS011;58629;48.808;8.820;2023-12-07T07:59:56;9.15;;;4.03;;
70967;SDS011;58629;48.808;8.820;2023-12-07T08:02:22;8.85;;;4.50;;
70967;SDS011;58629;48.808;8.820;2023-12-07T08:04:47;8.40;;;3.93;;
70967;SDS011;58629;48.808;8.820;2023-12-07T08:07:13;8.83;;;4.20;;
70967;SDS011;58629;48.808;8.820;2023-12-07T08:09:38;11.40;;;4.87;;
70967;SDS011;58629;48.808;8.820;2023-12-07T08:12:04;11.95;;;5.75;;
70967;SDS011;58629;48.808;8.820;2023-12-07T08:14:31;11.80;;;5.95;;
70967;SDS011;58629;48.808;8.820;2023-12-07T08:16:56;11.30;;;5.40;;
70967;SDS011;58629;48.808;8.820;2023-12-07T08:19:21;10.87;;;5.10;;
70967;SDS011;58629;48.808;8.820;2023-12-07T08:21:47;9.83;;;4.80;;
70967;SDS011;58629;48.808;8.820;2023-12-07T08:24:12;11.57;;;5.23;;
70967;SDS011;58629;48.808;8.820;2023-12-07T08:26:38;9.13;;;4.83;;
70967;SDS011;58629;48.808;8.820;2023-12-07T08:29:04;9.63;;;4.88;;
70967;SDS011;58629;48.808;8.820;2023-12-07T08:31:29;8.98;;;4.80;;
70967;SDS011;58629;48.808;8.820;2023-12-07T08:36:45;12.53;;;6.10;;
70967;SDS011;58629;48.808;8.820;2023-12-07T08:39:10;12.73;;;6.40;;
70967;SDS011;58629;48.808;8.820;2023-12-07T08:41:36;13.10;;;6.40;;
70967;SDS011;58629;48.808;8.820;2023-12-07T08:44:02;12.13;;;6.30;;
70967;SDS011;58629;48.808;8.820;2023-12-07T08:46:27;12.88;;;6.40;;
70967;SDS011;58629;48.808;8.820;2023-12-07T08:48:53;14.70;;;6.57;;
70967;SDS011;58629;48.808;8.820;2023-12-07T08:51:19;13.88;;;6.80;;
70967;SDS011;58629;48.808;8.820;2023-12-07T08:53:44;12.60;;;6.47;;
70967;SDS011;58629;48.808;8.820;2023-12-07T08:56:10;13.18;;;6.18;;
70967;SDS011;58629;48.808;8.820;2023-12-07T08:58:37;12.13;;;6.25;;
70967;SDS011;58629;48.808;8.820;2023-12-07T09:01:03;14.05;;;6.90;;
70967;SDS011;58629;48.808;8.820;2023-12-07T09:03:30;14.27;;;7.03;;
70967;SDS011;58629;48.808;8.820;2023-12-07T09:05:57;12.35;;;6.18;;
70967;SDS011;58629;48.808;8.820;2023-12-07T09:08:23;12.98;;;6.20;;
70967;SDS011;58629;48.808;8.820;2023-12-07T09:10:48;11.07;;;5.60;;
70967;SDS011;58629;48.808;8.820;2023-12-07T09:13:16;10.63;;;4.90;;
70967;SDS011;58629;48.808;8.820;2023-12-07T09:15:42;9.27;;;4.75;;
70967;SDS011;58629;48.808;8.820;2023-12-07T09:18:07;9.27;;;4.90;;
70967;SDS011;58629;48.808;8.820;2023-12-07T09:20:32;9.13;;;4.57;;
70967;SDS011;58629;48.808;8.820;2023-12-07T09:22:58;10.52;;;5.57;;
70967;SDS011;58629;48.808;8.820;2023-12-07T09:25:23;11.20;;;5.83;;
70967;SDS011;58629;48.808;8.820;2023-12-07T09:27:52;11.15;;;6.30;;
70967;SDS011;58629;48.808;8.820;2023-12-07T09:30:18;12.10;;;6.37;;
70967;SDS011;58629;48.808;8.820;2023-12-07T09:32:43;11.37;;;6.13;;
70967;SDS011;58629;48.808;8.820;2023-12-07T09:35:09;10.50;;;5.37;;
70967;SDS011;58629;48.808;8.820;2023-12-07T09:37:44;11.57;;;6.03;;
70967;SDS011;58629;48.808;8.820;2023-12-07T09:40:19;11.48;;;5.85;;
70967;SDS011;58629;48.808;8.820;2023-12-07T09:42:46;10.47;;;5.53;;
70967;SDS011;58629;48.808;8.820;2023-12-07T09:45:12;10.85;;;5.13;;
70967;SDS011;58629;48.808;8.820;2023-12-07T09:47:42;10.90;;;5.82;;
70967;SDS011;58629;48.808;8.820;2023-12-07T09:50:08;13.73;;;7.25;;
70967;SDS011;58629;48.808;8.820;2023-12-07T09:52:35;14.35;;;7.03;;
70967;SDS011;58629;48.808;8.820;2023-12-07T09:55:04;11.73;;;6.50;;
70967;SDS011;58629;48.808;8.820;2023-12-07T09:57:30;14.52;;;6.80;;
70967;SDS011;58629;48.808;8.820;2023-12-07T09:59:56;13.68;;;7.28;;
70967;SDS011;58629;48.808;8.820;2023-12-07T10:02:22;13.70;;;6.80;;
70967;SDS011;58629;48.808;8.820;2023-12-07T10:04:48;12.30;;;6.60;;
70967;SDS011;58629;48.808;8.820;2023-12-07T10:07:34;11.30;;;6.03;;
70967;SDS011;58629;48.808;8.820;2023-12-07T10:10:01;12.95;;;6.80;;
70967;SDS011;58629;48.808;8.820;2023-12-07T10:12:28;12.37;;;6.27;;
70967;SDS011;58629;48.808;8.820;2023-12-07T10:14:54;10.70;;;6.03;;
70967;SDS011;58629;48.808;8.820;2023-12-07T10:17:19;11.77;;;5.83;;
70967;SDS011;58629;48.808;8.820;2023-12-07T10:19:45;10.32;;;5.20;;
70967;SDS011;58629;48.808;8.820;2023-12-07T10:22:13;10.00;;;5.37;;
70967;SDS011;58629;48.808;8.820;2023-12-07T10:24:42;9.32;;;4.82;;
70967;SDS011;58629;48.808;8.820;2023-12-07T10:27:08;10.00;;;5.20;;
70967;SDS011;58629;48.808;8.820;2023-12-07T10:29:37;9.70;;;5.17;;
70967;SDS011;58629;48.808;8.820;2023-12-07T10:32:03;10.90;;;5.45;;
70967;SDS011;58629;48.808;8.820;2023-12-07T10:34:30;9.68;;;5.25;;
70967;SDS011;58629;48.808;8.820;2023-12-07T10:36:55;11.18;;;5.65;;
70967;SDS011;58629;48.808;8.820;2023-12-07T10:39:23;11.90;;;5.80;;
70967;SDS011;58629;48.808;8.820;2023-12-07T10:41:49;9.65;;;5.45;;
70967;SDS011;58629;48.808;8.820;2023-12-07T10:44:21;9.38;;;5.30;;
70967;SDS011;58629;48.808;8.820;2023-12-07T10:46:50;9.77;;;5.40;;
70967;SDS011;58629;48.808;8.820;2023-12-07T10:49:17;9.02;;;4.82;;
70967;SDS011;58629;48.808;8.820;2023-12-07T10:54:19;9.07;;;4.50;;
70967;SDS011;58629;48.808;8.820;2023-12-07T10:56:48;10.27;;;5.47;;
70967;SDS011;58629;48.808;8.820;2023-12-07T10:59:16;10.73;;;5.13;;
70967;SDS011;58629;48.808;8.820;2023-12-07T11:01:42;8.83;;;4.43;;
70967;SDS011;58629;48.808;8.820;2023-12-07T11:04:12;8.43;;;3.90;;
70967;SDS011;58629;48.808;8.820;2023-12-07T11:06:41;8.13;;;4.35;;
70967;SDS011;58629;48.808;8.820;2023-12-07T11:09:16;7.05;;;3.80;;
70967;SDS011;58629;48.808;8.820;2023-12-07T11:11:48;7.80;;;3.90;;
70967;SDS011;58629;48.808;8.820;2023-12-07T11:14:21;8.43;;;4.18;;
70967;SDS011;58629;48.808;8.820;2023-12-07T11:16:50;8.40;;;4.20;;
70967;SDS011;58629;48.808;8.820;2023-12-07T11:21:59;7.43;;;3.60;;
70967;SDS011;58629;48.808;8.820;2023-12-07T11:24:25;7.23;;;3.67;;
70967;SDS011;58629;48.808;8.820;2023-12-07T11:26:54;5.68;;;3.10;;
70967;SDS011;58629;48.808;8.820;2023-12-07T11:29:29;3.90;;;2.40;;
70967;SDS011;58629;48.808;8.820;2023-12-07T11:31:55;4.53;;;2.47;;
70967;SDS011;58629;48.808;8.820;2023-12-07T11:34:38;5.25;;;2.97;;
70967;SDS011;58629;48.808;8.820;2023-12-07T11:37:05;5.47;;;3.10;;
70967;SDS011;58629;48.808;8.820;2023-12-07T11:39:50;9.35;;;3.45;;
70967;SDS011;58629;48.808;8.820;2023-12-07T11:42:16;6.10;;;3.33;;
70967;SDS011;58629;48.808;8.820;2023-12-07T11:44:43;6.03;;;3.30;;
70967;SDS011;58629;48.808;8.820;2023-12-07T11:47:15;5.55;;;2.70;;
70967;SDS011;58629;48.808;8.820;2023-12-07T11:49:42;5.72;;;3.40;;
70967;SDS011;58629;48.808;8.820;2023-12-07T11:52:15;5.63;;;2.78;;
70967;SDS011;58629;48.808;8.820;2023-12-07T11:54:45;5.17;;;2.47;;
70967;SDS011;58629;48.808;8.820;2023-12-07T11:57:11;4.28;;;2.42;;
70967;SDS011;58629;48.808;8.820;2023-12-07T11:59:38;3.97;;;2.35;;
70967;SDS011;58629;48.808;8.820;2023-12-07T12:02:03;5.23;;;2.60;;
70967;SDS011;58629;48.808;8.820;2023-12-07T12:04:29;5.60;;;2.90;;
70967;SDS011;58629;48.808;8.820;2023-12-07T12:06:54;4.68;;;2.65;;
70967;SDS011;58629;48.808;8.820;2023-12-07T12:09:20;5.37;;;2.90;;
70967;SDS011;58629;48.808;8.820;2023-12-07T12:11:48;5.67;;;2.90;;
70967;SDS011;58629;48.808;8.820;2023-12-07T12:14:14;5.25;;;2.67;;
70967;SDS011;58629;48.808;8.820;2023-12-07T12:16:41;4.57;;;2.70;;
70967;SDS011;58629;48.808;8.820;2023-12-07T12:19:07;6.65;;;3.40;;
70967;SDS011;58629;48.808;8.820;2023-12-07T12:21:34;5.90;;;3.00;;
70967;SDS011;58629;48.808;8.820;2023-12-07T12:24:00;5.60;;;2.88;;
70967;SDS011;58629;48.808;8.820;2023-12-07T12:26:25;6.32;;;3.33;;
70967;SDS011;58629;48.808;8.820;2023-12-07T12:28:51;5.35;;;2.70;;
70967;SDS011;58629;48.808;8.820;2023-12-07T12:31:17;5.43;;;3.00;;
70967;SDS011;58629;48.808;8.820;2023-12-07T12:33:43;5.13;;;2.50;;
70967;SDS011;58629;48.808;8.820;2023-12-07T12:36:08;4.53;;;2.70;;
70967;SDS011;58629;48.808;8.820;2023-12-07T12:38:36;5.22;;;2.72;;
70967;SDS011;58629;48.808;8.820;2023-12-07T12:41:02;4.30;;;2.55;;
70967;SDS011;58629;48.808;8.820;2023-12-07T12:43:29;4.72;;;2.42;;
70967;SDS011;58629;48.808;8.820;2023-12-07T12:45:56;4.90;;;2.75;;
70967;SDS011;58629;48.808;8.820;2023-12-07T12:48:22;5.47;;;2.80;;
70967;SDS011;58629;48.808;8.820;2023-12-07T12:50:48;4.43;;;2.40;;
70967;SDS011;58629;48.808;8.820;2023-12-07T12:53:13;3.97;;;2.60;;
70967;SDS011;58629;48.808;8.820;2023-12-07T12:55:40;5.07;;;2.50;;
70967;SDS011;58629;48.808;8.820;2023-12-07T12:58:07;3.87;;;2.23;;
70967;SDS011;58629;48.808;8.820;2023-12-07T13:00:34;4.20;;;2.28;;
70967;SDS011;58629;48.808;8.820;2023-12-07T13:03:03;3.95;;;2.22;;
70967;SDS011;58629;48.808;8.820;2023-12-07T13:05:29;3.45;;;2.00;;
70967;SDS011;58629;48.808;8.820;2023-12-07T13:07:55;4.30;;;2.00;;
70967;SDS011;58629;48.808;8.820;2023-12-07T13:10:21;4.55;;;2.30;;
70967;SDS011;58629;48.808;8.820;2023-12-07T13:12:46;3.73;;;1.60;;
70967;SDS011;58629;48.808;8.820;2023-12-07T13:15:12;3.53;;;1.60;;
70967;SDS011;58629;48.808;8.820;2023-12-07T13:17:38;2.90;;;1.67;;
70967;SDS011;58629;48.808;8.820;2023-12-07T13:20:06;3.05;;;1.90;;
70967;SDS011;58629;48.808;8.820;2023-12-07T13:22:35;3.10;;;1.80;;
70967;SDS011;58629;48.808;8.820;2023-12-07T13:25:10;3.42;;;1.73;;
70967;SDS011;58629;48.808;8.820;2023-12-07T13:27:37;3.20;;;1.73;;
70967;SDS011;58629;48.808;8.820;2023-12-07T13:30:02;3.50;;;1.80;;
70967;SDS011;58629;48.808;8.820;2023-12-07T13:32:32;2.35;;;1.30;;
70967;SDS011;58629;48.808;8.820;2023-12-07T13:34:58;2.93;;;1.50;;
70967;SDS011;58629;48.808;8.820;2023-12-07T13:37:23;2.80;;;1.60;;
70967;SDS011;58629;48.808;8.820;2023-12-07T13:39:49;2.50;;;1.50;;
70967;SDS011;58629;48.808;8.820;2023-12-07T13:42:20;4.78;;;1.75;;
70967;SDS011;58629;48.808;8.820;2023-12-07T13:44:46;4.00;;;1.90;;
70967;SDS011;58629;48.808;8.820;2023-12-07T13:47:12;3.47;;;1.60;;
70967;SDS011;58629;48.808;8.820;2023-12-07T13:49:38;3.03;;;1.60;;
70967;SDS011;58629;48.808;8.820;2023-12-07T13:52:03;4.77;;;1.70;;
70967;SDS011;58629;48.808;8.820;2023-12-07T13:54:29;2.53;;;1.70;;
70967;SDS011;58629;48.808;8.820;2023-12-07T13:56:57;3.13;;;1.80;;
70967;SDS011;58629;48.808;8.820;2023-12-07T13:59:23;3.65;;;1.75;;
70967;SDS011;58629;48.808;8.820;2023-12-07T14:01:48;2.90;;;1.57;;
70967;SDS011;58629;48.808;8.820;2023-12-07T14:04:14;3.80;;;1.73;;
70967;SDS011;58629;48.808;8.820;2023-12-07T14:06:39;3.00;;;1.67;;
70967;SDS011;58629;48.808;8.820;2023-12-07T14:09:04;3.77;;;1.67;;
70967;SDS011;58629;48.808;8.820;2023-12-07T14:11:31;3.60;;;1.70;;
70967;SDS011;58629;48.808;8.820;2023-12-07T14:13:56;4.53;;;2.10;;
70967;SDS011;58629;48.808;8.820;2023-12-07T14:16:21;3.03;;;1.83;;
70967;SDS011;58629;48.808;8.820;2023-12-07T14:18:47;4.22;;;2.30;;
70967;SDS011;58629;48.808;8.820;2023-12-07T14:21:12;3.97;;;2.33;;
70967;SDS011;58629;48.808;8.820;2023-12-07T14:23:39;5.13;;;2.00;;
70967;SDS011;58629;48.808;8.820;2023-12-07T14:26:05;4.38;;;2.38;;
70967;SDS011;58629;48.808;8.820;2023-12-07T14:28:30;4.03;;;2.30;;
70967;SDS011;58629;48.808;8.820;2023-12-07T14:30:58;5.32;;;2.58;;
70967;SDS011;58629;48.808;8.820;2023-12-07T14:33:24;5.67;;;2.53;;
70967;SDS011;58629;48.808;8.820;2023-12-07T14:35:49;3.45;;;2.17;;
70967;SDS011;58629;48.808;8.820;2023-12-07T14:38:15;4.63;;;2.50;;
70967;SDS011;58629;48.808;8.820;2023-12-07T14:40:40;4.77;;;2.90;;
70967;SDS011;58629;48.808;8.820;2023-12-07T14:43:06;5.80;;;3.53;;
70967;SDS011;58629;48.808;8.820;2023-12-07T14:45:31;5.55;;;2.80;;
70967;SDS011;58629;48.808;8.820;2023-12-07T14:47:56;5.57;;;2.85;;